Time;durP1;ratioP1;P1;durP2;ratioP2;P2;SDS_P1;SDS_P2;PMS_P1;PMS_P2;Temp;Humidity;BMP_temperature;BMP_pressure;BME280_temperature;BME280_humidity;BME280_pressure;Samples;Min_cycle;Max_cycle;Signal;HPM_P1;HPM_P2
2022/02/17 00:08:48;;;;;;;2.28;0.40;;;;;;;12.48;96.83;99037.03;20941959;28;20449;-73
2022/02/17 00:18:51;;;;;;;1.45;0.40;;;;;;;12.42;97.20;99002.34;20941848;28;20094;-72
2022/02/17 00:28:56;;;;;;;2.45;0.30;;;;;;;12.48;96.99;99016.03;20946109;28;20049;-72
2022/02/17 00:38:58;;;;;;;0.47;0.20;;;;;;;12.55;96.07;99009.59;20939993;28;20536;-72
2022/02/17 00:48:59;;;;;;;1.17;0.75;;;;;;;12.52;96.50;99007.09;20937758;28;20048;-72
2022/02/17 00:59:01;;;;;;;0.80;0.28;;;;;;;12.49;97.08;99007.22;20938990;28;20049;-72
2022/02/17 01:09:02;;;;;;;2.17;0.20;;;;;;;12.37;99.22;98964.94;20937470;28;20049;-72
2022/02/17 01:19:06;;;;;;;1.42;0.30;;;;;;;12.39;99.00;98990.19;20945396;28;20060;-72
2022/02/17 01:29:08;;;;;;;0.77;0.20;;;;;;;12.40;99.09;99009.41;20955643;28;20123;-72
2022/02/17 01:39:09;;;;;;;6.28;0.40;;;;;;;12.41;99.15;98993.59;20954914;28;20551;-70
2022/02/17 01:49:11;;;;;;;3.08;0.20;;;;;;;12.25;100.00;98975.06;20951102;28;20110;-71
2022/02/17 01:59:13;;;;;;;0.22;0.10;;;;;;;12.32;100.00;98994.03;20951582;28;20403;-71
2022/02/17 02:09:16;;;;;;;0.35;0.20;;;;;;;12.13;100.00;98941.53;20950635;28;20087;-71
2022/02/17 02:19:17;;;;;;;2.45;0.20;;;;;;;12.18;100.00;98928.19;20950575;28;20068;-72
2022/02/17 02:29:19;;;;;;;0.52;0.17;;;;;;;12.16;100.00;98914.28;20949705;28;20045;-69
2022/02/17 02:39:21;;;;;;;0.08;0.00;;;;;;;12.20;100.00;98902.72;20949570;28;20048;-69
2022/02/17 02:49:24;;;;;;;0.10;0.00;;;;;;;12.19;100.00;98887.91;20947133;28;20056;-68
2022/02/17 02:59:27;;;;;;;0.20;0.00;;;;;;;12.35;100.00;98869.66;20946556;28;20049;-70
2022/02/17 03:09:28;;;;;;;0.65;0.10;;;;;;;12.36;100.00;98889.72;20945040;28;20091;-70
2022/02/17 03:19:30;;;;;;;0.00;0.00;;;;;;;12.39;99.97;98884.34;20945728;28;20045;-70
2022/02/17 03:29:31;;;;;;;0.30;0.00;;;;;;;12.44;99.89;98909.44;20945187;28;20063;-70
2022/02/17 03:39:33;;;;;;;0.22;0.00;;;;;;;12.38;100.00;98925.50;20942385;28;20053;-71
2022/02/17 03:49:34;;;;;;;0.35;0.00;;;;;;;12.38;100.00;98940.41;20943219;28;20406;-70
2022/02/17 03:59:36;;;;;;;1.13;0.00;;;;;;;12.49;98.68;98972.22;20941568;28;20053;-71
2022/02/17 04:09:37;;;;;;;0.80;0.10;;;;;;;12.54;99.58;98973.72;20941227;28;20045;-71
2022/02/17 04:19:39;;;;;;;0.35;0.10;;;;;;;12.41;100.00;98993.59;20941237;28;20049;-71
2022/02/17 04:29:40;;;;;;;0.30;0.03;;;;;;;12.50;100.00;99024.69;20940116;28;20052;-72
2022/02/17 04:39:42;;;;;;;0.47;0.10;;;;;;;12.10;100.00;99100.84;20939541;28;20067;-73
2022/02/17 04:49:44;;;;;;;5.55;1.10;;;;;;;11.39;100.00;99129.06;20939136;28;20099;-73
2022/02/17 04:59:45;;;;;;;5.30;0.95;;;;;;;11.17;100.00;99111.56;20953944;28;20052;-73
2022/02/17 05:09:48;;;;;;;7.25;1.20;;;;;;;11.37;92.32;99123.88;20956888;28;20135;-71
2022/02/17 05:19:50;;;;;;;7.22;1.60;;;;;;;11.24;91.89;99144.47;20955467;28;20055;-71
2022/02/17 05:29:52;;;;;;;8.77;1.88;;;;;;;11.27;87.43;99133.03;20955917;28;20049;-71
2022/02/17 05:39:53;;;;;;;9.93;2.10;;;;;;;11.36;82.83;99148.41;20953477;28;20083;-70
2022/02/17 05:49:55;;;;;;;10.82;2.10;;;;;;;11.43;80.03;99169.97;20953929;28;20053;-70
2022/02/17 05:59:58;;;;;;;13.10;2.22;;;;;;;11.35;78.33;99219.19;20961983;28;20479;-70
2022/02/17 06:10:00;;;;;;;15.38;2.95;;;;;;;11.30;74.06;99222.84;20951258;28;20091;-70
2022/02/17 06:20:03;;;;;;;14.38;2.55;;;;;;;11.11;75.06;99247.16;20951455;28;20048;-70
2022/02/17 06:30:06;;;;;;;12.48;2.38;;;;;;;11.21;72.55;99264.25;20951193;28;20114;-70
2022/02/17 06:40:08;;;;;;;14.25;2.58;;;;;;;10.96;76.92;99291.31;20949977;28;20060;-69
2022/02/17 06:50:10;;;;;;;14.60;2.47;;;;;;;11.01;76.99;99341.78;20946922;28;20098;-69
2022/02/17 07:00:12;;;;;;;13.57;2.95;;;;;;;10.96;78.17;99356.78;20945732;28;20056;-69
2022/02/17 07:10:54;;;;;;;15.23;2.33;;;;;;;10.89;79.73;99339.59;20947046;28;20044;-69
2022/02/17 07:20:40;;;;;;;12.35;2.83;;;;;;;10.83;78.73;99394.81;20945493;28;20555;-69
2022/02/17 07:30:44;;;;;;;15.55;2.90;;;;;;;10.95;75.98;99401.38;20941805;28;20045;-70
2022/02/17 07:40:46;;;;;;;17.42;2.88;;;;;;;10.94;75.75;99420.63;20956267;28;20052;-69
2022/02/17 07:50:47;;;;;;;10.75;2.72;;;;;;;11.20;71.98;99435.47;20941700;28;20098;-69
2022/02/17 08:00:49;;;;;;;18.50;2.80;;;;;;;11.39;67.33;99473.25;20943403;28;20048;-70
2022/02/17 08:10:51;;;;;;;16.58;3.03;;;;;;;11.38;67.91;99523.97;20957985;28;20550;-68
2022/02/17 08:20:52;;;;;;;20.08;3.42;;;;;;;11.22;66.62;99543.72;20960572;28;20045;-68
2022/02/17 08:30:55;;;;;;;24.65;4.05;;;;;;;11.21;60.99;99569.06;20936443;28;20476;-69
2022/02/17 08:40:58;;;;;;;19.65;3.78;;;;;;;11.23;59.04;99582.97;20934745;28;20049;-68
2022/02/17 08:51:00;;;;;;;22.15;4.13;;;;;;;11.15;59.96;99605.06;20932332;28;20049;-68
2022/02/17 09:01:01;;;;;;;20.48;4.05;;;;;;;11.12;60.54;99636.63;20929967;28;20486;-69
2022/02/17 09:11:04;;;;;;;26.65;3.83;;;;;;;10.96;59.94;99683.34;20934571;28;20046;-68
2022/02/17 09:21:06;;;;;;;25.67;4.80;;;;;;;10.98;59.85;99676.31;20931279;28;20057;-69
2022/02/17 09:31:08;;;;;;;28.90;4.72;;;;;;;11.00;59.49;99672.72;20929581;28;20096;-69
2022/02/17 09:41:10;;;;;;;20.23;4.53;;;;;;;11.11;58.85;99671.56;20936718;28;20053;-70
2022/02/17 09:51:13;;;;;;;23.92;4.43;;;;;;;10.98;60.18;99687.66;20945431;28;20067;-71
2022/02/17 10:01:23;;;;;;;29.20;4.82;;;;;;;11.10;60.07;99690.81;20944357;28;20078;-70
2022/02/17 10:11:28;;;;;;;22.48;5.07;;;;;;;11.12;60.67;99712.59;20945516;28;20048;-70
2022/02/17 10:21:33;;;;;;;20.42;3.75;;;;;;;11.61;59.28;99708.50;20943389;28;20524;-70
2022/02/17 10:31:35;;;;;;;19.65;3.70;;;;;;;11.65;58.31;99715.38;20941695;28;20102;-70
2022/02/17 10:42:04;;;;;;;22.35;4.10;;;;;;;11.57;58.45;99719.06;20938353;28;20064;-71
2022/02/17 10:52:06;;;;;;;23.65;4.25;;;;;;;11.61;60.37;99750.44;20937983;28;20466;-70
2022/02/17 11:02:07;;;;;;;25.15;4.03;;;;;;;11.76;58.74;99749.97;20938595;28;20044;-70
2022/02/17 11:12:09;;;;;;;23.00;4.05;;;;;;;11.95;57.54;99768.66;20962376;28;20094;-70
2022/02/17 11:22:12;;;;;;;23.50;4.30;;;;;;;11.80;56.55;99769.97;20934111;28;20045;-70
2022/02/17 11:32:17;;;;;;;28.88;4.43;;;;;;;11.97;57.03;99767.69;20935766;28;20095;-70
2022/02/17 11:42:32;;;;;;;22.83;4.25;;;;;;;11.97;55.32;99751.94;20935182;28;20402;-70
2022/02/17 11:52:36;;;;;;;21.43;3.97;;;;;;;12.03;53.68;99782.41;20934730;28;20049;-69
2022/02/17 12:02:41;;;;;;;22.07;4.80;;;;;;;12.04;55.08;99792.00;20943336;28;20619;-71
2022/02/17 12:12:43;;;;;;;21.15;3.85;;;;;;;11.95;56.25;99802.75;20954909;28;20414;-70
2022/02/17 12:22:53;;;;;;;23.35;4.35;;;;;;;11.73;57.56;99836.59;20955992;28;20433;-68
2022/02/17 12:33:11;;;;;;;24.60;4.70;;;;;;;11.61;61.20;99842.22;20930313;28;20045;-68
2022/02/17 12:43:25;;;;;;;20.05;3.85;;;;;;;11.23;66.10;99833.66;20943932;28;20503;-69
2022/02/17 12:53:27;;;;;;;24.88;4.57;;;;;;;11.80;62.41;99804.06;20931716;28;20048;-69
2022/02/17 13:03:40;;;;;;;32.72;5.53;;;;;;;12.03;58.08;99800.78;20941754;28;20469;-69
2022/02/17 13:13:42;;;;;;;22.00;4.63;;;;;;;11.67;62.17;99834.16;20935034;28;20052;-68
2022/02/17 13:23:46;;;;;;;20.77;3.45;;;;;;;11.52;62.51;99825.84;20946465;28;20102;-67
2022/02/17 13:33:47;;;;;;;20.77;3.65;;;;;;;11.15;64.30;99839.09;20944575;28;20048;-68
2022/02/17 13:43:49;;;;;;;24.92;3.40;;;;;;;11.07;65.29;99848.06;20948624;28;20117;-68
2022/02/17 13:53:58;;;;;;;22.60;4.95;;;;;;;11.00;68.27;99874.44;20968340;28;20090;-69
2022/02/17 14:04:01;;;;;;;21.25;3.42;;;;;;;10.88;69.45;99845.09;20948476;28;20597;-69
2022/02/17 14:14:03;;;;;;;12.70;2.10;;;;;;;10.86;67.84;99866.06;20946630;28;20052;-69
2022/02/17 14:24:09;;;;;;;16.05;3.08;;;;;;;10.34;74.16;99835.94;20961184;28;20140;-69
2022/02/17 14:34:11;;;;;;;14.70;2.75;;;;;;;10.55;73.18;99866.00;20957268;28;20049;-69
2022/02/17 14:44:14;;;;;;;19.02;3.03;;;;;;;10.74;71.12;99845.44;20942022;28;20056;-67
2022/02/17 14:54:15;;;;;;;20.52;3.85;;;;;;;10.92;69.27;99870.28;20939352;28;20564;-68
2022/02/17 15:04:17;;;;;;;27.27;5.22;;;;;;;10.99;66.91;99929.50;20940142;28;20277;-68
2022/02/17 15:14:18;;;;;;;19.38;3.63;;;;;;;11.01;66.08;99933.78;20944150;28;20041;-68
2022/02/17 15:24:20;;;;;;;18.38;3.75;;;;;;;10.86;69.46;99967.34;20944161;28;20452;-69
2022/02/17 15:34:21;;;;;;;19.05;3.70;;;;;;;10.58;70.22;99959.28;20935329;28;20079;-68
2022/02/17 15:44:23;;;;;;;21.00;3.90;;;;;;;10.56;68.21;99964.56;20935139;28;20057;-68
2022/02/17 15:54:25;;;;;;;19.77;3.80;;;;;;;10.48;68.47;99993.50;20934715;28;20403;-68
2022/02/17 16:04:26;;;;;;;19.67;3.47;;;;;;;10.46;68.61;100016.25;20934906;28;20501;-70
2022/02/17 16:14:29;;;;;;;24.45;4.05;;;;;;;10.40;67.39;100013.78;20933873;28;20045;-70
2022/02/17 16:24:33;;;;;;;21.42;4.53;;;;;;;10.28;68.22;100034.94;20932725;28;20063;-69
2022/02/17 16:34:34;;;;;;;29.17;4.32;;;;;;;10.13;70.26;100062.25;20931071;28;20045;-69
2022/02/17 16:44:36;;;;;;;25.48;5.15;;;;;;;10.21;67.29;100067.34;20931518;28;20493;-70
2022/02/17 16:54:39;;;;;;;25.33;4.70;;;;;;;10.13;66.97;100098.00;20930366;28;20049;-69
2022/02/17 17:04:42;;;;;;;23.58;4.22;;;;;;;10.08;66.23;100112.94;20933136;28;20052;-69
2022/02/17 17:14:44;;;;;;;23.55;4.22;;;;;;;10.12;64.85;100159.09;20933217;28;20075;-70
2022/02/17 17:24:47;;;;;;;21.77;4.38;;;;;;;10.05;65.02;100158.31;20934651;28;20067;-70
2022/02/17 17:34:49;;;;;;;27.05;5.28;;;;;;;9.86;66.71;100191.75;20933766;28;20072;-70
2022/02/17 17:55:11;;;;;;;27.23;5.38;;;;;;;9.77;68.86;100231.13;20933982;28;20048;-70
2022/02/17 18:05:13;;;;;;;25.00;5.20;;;;;;;9.89;67.33;100262.31;20960442;28;20047;-69
2022/02/17 18:15:16;;;;;;;24.33;5.30;;;;;;;9.76;67.82;100276.44;20963241;28;20054;-69
2022/02/17 18:25:21;;;;;;;28.02;5.13;;;;;;;9.89;66.34;100298.06;20954453;28;20056;-69
2022/02/17 18:35:23;;;;;;;;;;;;;;;9.91;64.28;100297.16;20941000;28;20049;-69
2022/02/17 18:45:27;;;;;;;27.45;4.63;;;;;;;9.85;64.76;100323.41;20949628;28;19975;-70
2022/02/17 18:55:31;;;;;;;23.83;4.73;;;;;;;9.84;64.15;100321.66;20941388;28;20044;-70
2022/02/17 19:05:32;;;;;;;27.13;5.15;;;;;;;9.79;63.84;100343.53;20937651;28;20052;-70
2022/02/17 19:15:35;;;;;;;21.05;4.45;;;;;;;9.69;63.76;100348.91;20935416;28;20041;-70
2022/02/17 19:25:36;;;;;;;22.25;4.38;;;;;;;9.59;65.07;100356.88;20935208;28;20049;-70
2022/02/17 19:35:38;;;;;;;25.65;4.25;;;;;;;9.87;64.05;100354.75;20938578;28;20036;-70
2022/02/17 19:45:41;;;;;;;27.23;6.25;;;;;;;9.68;66.04;100364.59;20931312;28;20064;-70
2022/02/17 19:55:43;;;;;;;29.00;5.78;;;;;;;9.57;67.21;100372.56;20934064;28;20478;-69
2022/02/17 20:05:45;;;;;;;30.77;5.60;;;;;;;9.46;67.77;100370.06;20930383;28;20056;-69
2022/02/17 20:15:47;;;;;;;24.52;5.13;;;;;;;9.44;69.19;100390.16;20935326;28;20052;-70
2022/02/17 20:25:49;;;;;;;28.92;5.22;;;;;;;9.39;70.44;100391.94;20933647;28;20045;-70
2022/02/17 20:35:50;;;;;;;30.40;4.90;;;;;;;9.32;70.62;100379.81;20929913;28;20045;-70
2022/02/17 20:56:24;;;;;;;30.05;5.13;;;;;;;9.27;71.49;100376.41;20937876;28;20064;-69
2022/02/17 21:06:28;;;;;;;27.17;5.95;;;;;;;9.21;72.85;100369.50;20931143;28;20148;-69
2022/02/17 21:16:33;;;;;;;29.80;5.13;;;;;;;9.39;70.75;100372.78;20933665;28;20049;-69
2022/02/17 21:26:36;;;;;;;;;;;;;;;9.32;70.77;100371.97;20931328;28;20059;-70
2022/02/17 21:36:38;;;;;;;28.23;4.80;;;;;;;9.38;70.60;100358.84;20936561;28;19944;-69
2022/02/17 21:46:39;;;;;;;29.55;5.65;;;;;;;9.60;68.92;100332.47;20945529;28;20055;-67
2022/02/17 21:56:40;;;;;;;27.63;5.70;;;;;;;9.56;70.15;100309.84;20944086;28;20040;-67
2022/02/17 22:06:42;;;;;;;26.38;5.47;;;;;;;9.49;70.80;100323.00;20941907;28;20055;-68
2022/02/17 22:16:43;;;;;;;23.02;6.05;;;;;;;9.52;69.79;100330.78;20945996;28;20109;-68
2022/02/17 22:26:45;;;;;;;30.25;4.90;;;;;;;9.60;69.11;100301.94;20941770;28;20053;-71
2022/02/17 22:36:48;;;;;;;33.10;4.90;;;;;;;9.62;68.55;100301.94;20939231;28;20583;-69
2022/02/17 22:46:50;;;;;;;20.38;4.15;;;;;;;9.58;68.75;100302.84;20938613;28;20107;-68
2022/02/17 22:56:51;;;;;;;25.08;5.43;;;;;;;9.57;68.63;100288.06;20939997;28;20053;-68
2022/02/17 23:06:54;;;;;;;25.95;4.85;;;;;;;9.41;70.50;100285.66;20944489;28;20420;-68
2022/02/17 23:27:17;;;;;;;24.38;5.63;;;;;;;9.22;69.81;100298.06;20945858;28;20238;-70
2022/02/17 23:37:19;;;;;;;29.23;5.38;;;;;;;9.09;69.77;100312.16;20944005;28;20090;-69
2022/02/17 23:47:20;;;;;;;26.80;4.72;;;;;;;9.05;70.27;100286.94;20943498;28;20044;-68
2022/02/17 23:57:22;;;;;;;24.67;4.63;;;;;;;9.12;70.23;100319.09;20941927;28;20048;-68
